Time;durP1;ratioP1;P1;durP2;ratioP2;P2;SDS_P1;SDS_P2;PMS_P1;PMS_P2;Temp;Humidity;BMP_temperature;BMP_pressure;BME280_temperature;BME280_humidity;BME280_pressure;Samples;Min_cycle;Max_cycle;Signal;HPM_P1;HPM_P2
2022/03/20 00:01:24;;;;;;;31.60;12.98;;;;;;;-3.71;56.92;102729.80;1720669;83;21092;-67
2022/03/20 00:03:51;;;;;;;29.10;12.95;;;;;;;-3.71;56.87;102730.69;1720595;83;21104;-67
2022/03/20 00:06:17;;;;;;;24.92;11.85;;;;;;;-3.68;57.04;102735.14;1720771;83;21235;-67
2022/03/20 00:08:45;;;;;;;25.27;12.70;;;;;;;-3.69;57.03;102731.67;1720630;83;21033;-67
2022/03/20 00:11:12;;;;;;;32.98;13.18;;;;;;;-3.68;57.09;102732.56;1748995;82;21036;-68
2022/03/20 00:13:40;;;;;;;26.95;12.90;;;;;;;-3.69;57.38;102738.52;1750928;82;21025;-67
2022/03/20 00:16:08;;;;;;;25.75;13.18;;;;;;;-3.71;57.37;102733.27;1751125;82;21540;-67
2022/03/20 00:18:36;;;;;;;25.62;12.78;;;;;;;-3.71;57.92;102729.40;1750851;82;21547;-67
2022/03/20 00:21:02;;;;;;;29.02;13.08;;;;;;;-3.69;58.02;102729.10;1750866;82;21049;-67
2022/03/20 00:23:29;;;;;;;30.37;14.58;;;;;;;-3.69;58.04;102721.37;1751024;81;21097;-68
2022/03/20 00:25:57;;;;;;;29.15;13.50;;;;;;;-3.70;57.97;102720.90;1750899;82;21108;-67
2022/03/20 00:28:26;;;;;;;27.65;13.95;;;;;;;-3.70;57.90;102718.32;1750944;82;21056;-67
2022/03/20 00:30:54;;;;;;;29.82;13.83;;;;;;;-3.69;57.95;102714.94;1750991;82;21240;-68
2022/03/20 00:33:22;;;;;;;31.17;14.00;;;;;;;-3.68;57.76;102715.45;1750737;82;21128;-67
2022/03/20 00:35:49;;;;;;;32.13;13.62;;;;;;;-3.66;57.92;102720.30;1751076;81;21988;-68
2022/03/20 00:38:15;;;;;;;27.87;13.48;;;;;;;-3.66;58.29;102716.44;1750932;82;21034;-68
2022/03/20 00:40:43;;;;;;;27.65;13.90;;;;;;;-3.68;58.50;102718.02;1751110;81;21009;-67
2022/03/20 00:43:10;;;;;;;33.60;14.68;;;;;;;-3.72;58.49;102719.91;1750815;82;21742;-67
2022/03/20 00:45:39;;;;;;;33.67;15.58;;;;;;;-3.73;58.46;102719.80;1750816;82;21999;-67
2022/03/20 00:48:08;;;;;;;28.70;14.18;;;;;;;-3.75;58.28;102718.44;1750896;81;21001;-67
2022/03/20 00:50:35;;;;;;;28.85;13.93;;;;;;;-3.75;58.40;102722.30;1723851;81;21425;-67
2022/03/20 00:53:03;;;;;;;27.93;13.28;;;;;;;-3.75;58.41;102719.72;1716525;83;21035;-67
2022/03/20 00:55:30;;;;;;;30.35;13.15;;;;;;;-3.73;58.29;102723.25;1716872;83;21203;-67
2022/03/20 00:57:57;;;;;;;30.27;13.60;;;;;;;-3.74;58.38;102718.92;1716323;83;21066;-66
2022/03/20 01:00:25;;;;;;;31.02;14.03;;;;;;;-3.75;58.60;102720.09;1717413;82;21037;-68
2022/03/20 01:02:51;;;;;;;32.20;14.65;;;;;;;-3.81;58.72;102721.50;1717670;83;21052;-67
2022/03/20 01:05:18;;;;;;;36.15;15.45;;;;;;;-3.82;58.86;102716.24;1718156;83;21070;-68
2022/03/20 01:07:47;;;;;;;34.78;14.83;;;;;;;-3.84;58.84;102716.57;1717926;83;21088;-68
2022/03/20 01:10:14;;;;;;;36.65;15.18;;;;;;;-3.85;58.83;102721.21;1726780;82;21015;-67
2022/03/20 01:12:41;;;;;;;26.45;12.70;;;;;;;-3.85;58.80;102713.48;1742583;82;21098;-68
2022/03/20 01:15:11;;;;;;;26.95;13.58;;;;;;;-3.82;59.20;102722.68;1742598;82;21101;-68
2022/03/20 01:17:38;;;;;;;29.98;13.20;;;;;;;-3.86;59.40;102711.31;1742658;82;21057;-67
2022/03/20 01:20:09;;;;;;;31.33;13.88;;;;;;;-3.89;59.51;102719.23;1742499;82;21280;-68
2022/03/20 01:22:37;;;;;;;27.27;12.98;;;;;;;-3.94;59.52;102721.52;1742828;82;21054;-68
2022/03/20 01:25:06;;;;;;;26.07;13.22;;;;;;;-3.98;59.53;102718.64;1742579;82;21041;-67
2022/03/20 01:27:33;;;;;;;27.65;13.38;;;;;;;-3.99;59.61;102719.45;1721675;82;21072;-67
2022/03/20 01:29:59;;;;;;;30.40;14.03;;;;;;;-4.05;59.73;102716.99;1742629;82;21159;-65
2022/03/20 01:32:28;;;;;;;28.55;13.68;;;;;;;-4.10;60.14;102717.06;1707011;84;21074;-67
2022/03/20 01:34:55;;;;;;;24.92;13.13;;;;;;;-4.14;60.21;102711.25;1742495;82;21065;-67
2022/03/20 01:37:22;;;;;;;28.30;13.35;;;;;;;-4.18;60.46;102707.09;1742627;82;21479;-68
2022/03/20 01:39:48;;;;;;;31.62;13.98;;;;;;;-4.22;60.97;102708.57;1742620;82;21156;-66
2022/03/20 01:42:15;;;;;;;32.17;13.83;;;;;;;-4.27;60.81;102709.97;1742534;82;21077;-67
2022/03/20 01:44:42;;;;;;;26.33;13.65;;;;;;;-4.29;60.93;102708.97;1742544;82;21107;-67
2022/03/20 01:47:10;;;;;;;28.20;13.93;;;;;;;-4.32;60.97;102708.78;1742619;82;21057;-67
2022/03/20 01:49:36;;;;;;;26.80;12.77;;;;;;;-4.34;61.08;102707.79;1738753;82;21593;-67
2022/03/20 01:52:10;;;;;;;30.80;13.88;;;;;;;-4.37;61.20;102708.48;1732928;82;21556;-68
2022/03/20 01:54:44;;;;;;;24.25;12.07;;;;;;;-4.39;61.49;102710.43;1732842;82;21104;-66
2022/03/20 01:57:17;;;;;;;23.10;11.48;;;;;;;-4.46;61.88;102703.63;1732497;82;21553;-66
2022/03/20 01:59:44;;;;;;;24.97;12.57;;;;;;;-4.49;62.12;102709.83;1732626;82;21073;-66
2022/03/20 02:02:11;;;;;;;28.15;12.30;;;;;;;-4.53;62.51;102705.67;1732845;82;21061;-66
2022/03/20 02:04:40;;;;;;;28.63;12.80;;;;;;;-4.57;62.89;102704.59;1732848;82;21014;-67
2022/03/20 02:07:07;;;;;;;30.07;14.30;;;;;;;-4.60;63.28;102709.55;1732885;82;22005;-67
2022/03/20 02:09:37;;;;;;;28.43;14.63;;;;;;;-4.66;63.36;102706.56;1733193;82;21243;-67
2022/03/20 02:12:06;;;;;;;31.17;14.25;;;;;;;-4.70;63.58;102699.43;1737920;82;21053;-67
2022/03/20 02:14:34;;;;;;;34.05;15.15;;;;;;;-4.70;63.76;102699.43;1738426;82;21037;-67
2022/03/20 02:17:04;;;;;;;35.55;15.95;;;;;;;-4.71;63.61;102704.09;1738186;82;21065;-69
2022/03/20 02:19:34;;;;;;;38.95;16.67;;;;;;;-4.70;63.49;102702.88;1738082;82;21088;-67
2022/03/20 02:22:02;;;;;;;33.48;15.95;;;;;;;-4.67;63.42;102697.05;1738171;82;22277;-66
2022/03/20 02:24:46;;;;;;;31.65;15.72;;;;;;;-4.67;63.26;102702.19;1737969;82;21038;-68
2022/03/20 02:27:27;;;;;;;41.03;15.50;;;;;;;-4.66;63.20;102702.30;1738063;82;21038;-67
2022/03/20 02:30:00;;;;;;;37.23;17.13;;;;;;;-4.68;63.27;102700.42;1738294;82;21089;-68
2022/03/20 02:32:29;;;;;;;34.20;15.20;;;;;;;-4.68;63.39;102697.86;1738067;82;21014;-67
2022/03/20 02:34:59;;;;;;;41.60;17.05;;;;;;;-4.66;63.42;102706.56;1738251;82;21002;-68
2022/03/20 02:37:28;;;;;;;36.73;15.65;;;;;;;-4.61;63.37;102705.18;1737949;82;21530;-67
2022/03/20 02:39:58;;;;;;;38.40;15.40;;;;;;;-4.61;63.44;102705.18;1738528;82;21037;-67
2022/03/20 02:42:26;;;;;;;39.60;16.65;;;;;;;-4.61;63.42;102701.33;1738226;82;21089;-66
2022/03/20 02:45:05;;;;;;;34.67;16.47;;;;;;;-4.59;63.48;102701.03;1738416;82;21546;-67
2022/03/20 02:47:38;;;;;;;36.00;16.03;;;;;;;-4.60;63.90;102704.41;1738362;82;21221;-67
2022/03/20 02:50:09;;;;;;;30.43;14.30;;;;;;;-4.62;63.73;102703.41;1745370;82;21759;-67
2022/03/20 02:52:53;;;;;;;29.80;12.95;;;;;;;-4.60;63.60;102709.55;1750703;82;21063;-67
2022/03/20 02:55:24;;;;;;;34.43;15.23;;;;;;;-4.61;63.91;102707.75;1750910;81;21079;-67
2022/03/20 02:57:53;;;;;;;32.05;14.73;;;;;;;-4.63;64.08;102701.61;1750701;82;21090;-66
2022/03/20 03:00:22;;;;;;;34.95;14.70;;;;;;;-4.65;64.06;102704.47;1750847;80;21149;-65
2022/03/20 03:02:50;;;;;;;29.65;13.72;;;;;;;-4.69;64.42;102707.26;1750817;82;21172;-68
2022/03/20 03:05:18;;;;;;;29.98;14.60;;;;;;;-4.73;64.41;102697.55;1750618;82;21046;-67
2022/03/20 03:13:20;;;;;;;32.23;14.57;;;;;;;-4.85;64.89;102700.20;1742762;82;21289;-67
2022/03/20 03:15:49;;;;;;;28.33;13.73;;;;;;;-4.89;64.94;102697.33;1742734;82;21513;-66
2022/03/20 03:18:16;;;;;;;29.18;13.80;;;;;;;-4.92;65.57;102700.98;1698131;82;21626;-67
2022/03/20 03:20:43;;;;;;;32.07;13.77;;;;;;;-4.96;65.70;102696.02;1742757;82;21059;-66
2022/03/20 03:23:10;;;;;;;31.00;15.23;;;;;;;-4.99;65.87;102693.25;1742788;82;21488;-67
2022/03/20 03:25:42;;;;;;;34.13;13.83;;;;;;;-5.05;66.22;102690.27;1742711;82;21314;-68
2022/03/20 03:28:05;;;;;;;25.50;12.27;;;;;;;-5.10;66.51;102682.24;1741512;82;21059;-70
2022/03/20 03:30:33;;;;;;;32.90;14.57;;;;;;;-5.12;66.71;102670.08;1742609;82;21051;-68
2022/03/20 03:33:00;;;;;;;36.97;15.00;;;;;;;-5.14;67.01;102670.37;1721350;82;21082;-69
2022/03/20 03:35:44;;;;;;;32.93;14.97;;;;;;;-5.17;66.91;102667.20;1721951;82;21055;-68
2022/03/20 03:38:14;;;;;;;28.87;14.23;;;;;;;-5.20;66.93;102663.52;1742702;82;21147;-67
2022/03/20 03:40:42;;;;;;;37.80;15.25;;;;;;;-5.22;66.76;102667.30;1742514;82;21011;-67
2022/03/20 03:43:09;;;;;;;34.83;14.77;;;;;;;-5.20;66.88;102669.95;1743005;82;21059;-67
2022/03/20 03:45:40;;;;;;;35.00;14.70;;;;;;;-5.22;67.15;102670.23;1742607;82;21015;-68
2022/03/20 03:48:09;;;;;;;;;;;;;;;-5.23;66.95;102667.18;1745288;82;21102;-67
2022/03/20 03:50:38;;;;;;;26.13;13.40;;;;;;;-5.24;66.82;102665.41;1743047;82;20176;-67
2022/03/20 03:53:05;;;;;;;33.10;13.87;;;;;;;-5.24;66.79;102661.56;1742863;82;21577;-68
2022/03/20 03:55:33;;;;;;;35.03;13.73;;;;;;;-5.22;66.89;102668.95;1742572;82;22018;-67
2022/03/20 03:57:59;;;;;;;26.60;13.07;;;;;;;-5.21;66.85;102663.04;1742766;82;21048;-66
2022/03/20 04:00:29;;;;;;;30.63;14.27;;;;;;;-5.20;66.75;102665.72;1742623;81;21021;-67
2022/03/20 04:02:57;;;;;;;17.40;9.75;;;;;;;-5.17;66.65;102667.61;1742822;82;21166;-67
2022/03/20 04:05:23;;;;;;;31.50;15.00;;;;;;;-5.13;66.55;102669.56;1742638;82;21073;-66
2022/03/20 04:07:51;;;;;;;32.63;16.20;;;;;;;-5.10;66.78;102660.80;1742403;82;21109;-66
2022/03/20 04:10:17;;;;;;;27.57;13.73;;;;;;;-5.06;66.74;102661.52;1742410;82;21030;-66
2022/03/20 04:12:45;;;;;;;34.13;14.80;;;;;;;-5.04;66.66;102663.76;1747764;82;21036;-66
2022/03/20 04:15:14;;;;;;;31.77;14.40;;;;;;;-5.02;66.59;102657.05;1748378;82;21284;-67
2022/03/20 04:17:42;;;;;;;33.73;15.10;;;;;;;-4.97;66.53;102664.70;1748173;81;21089;-67
2022/03/20 04:20:14;;;;;;;32.17;15.23;;;;;;;-4.93;66.45;102669.23;1748229;81;21568;-67
2022/03/20 04:23:45;;;;;;;35.30;14.57;;;;;;;-4.85;66.40;102665.50;1748033;81;21086;-67
2022/03/20 04:25:14;;;;;;;33.40;14.53;;;;;;;-4.75;66.08;102660.97;1744126;82;21049;-69
2022/03/20 04:27:41;;;;;;;34.13;12.97;;;;;;;-4.64;65.85;102661.28;1748258;82;21397;-67
2022/03/20 04:30:10;;;;;;;32.80;14.53;;;;;;;-4.52;65.38;102660.78;1748261;81;21025;-68
2022/03/20 04:32:36;;;;;;;30.03;13.23;;;;;;;-4.32;65.21;102666.33;1748356;82;21552;-68
2022/03/20 04:35:05;;;;;;;29.37;14.65;;;;;;;-3.94;64.60;102669.14;1748280;81;21548;-68
2022/03/20 04:37:31;;;;;;;34.03;15.63;;;;;;;-3.47;62.99;102663.47;1747980;82;21056;-69
2022/03/20 04:39:58;;;;;;;32.50;15.13;;;;;;;-3.06;61.53;102650.48;1748185;81;21226;-67
2022/03/20 04:42:24;;;;;;;26.87;13.75;;;;;;;-2.63;60.56;102661.09;1748262;81;21064;-68
2022/03/20 04:44:51;;;;;;;31.80;14.90;;;;;;;-2.24;60.09;102656.41;1748255;81;21076;-68
2022/03/20 04:58:30;;;;;;;32.23;15.30;;;;;;;-0.25;52.65;102659.37;1748409;82;20999;-67
2022/03/20 05:00:57;;;;;;;27.32;15.30;;;;;;;-0.07;52.32;102655.06;1736958;80;21081;-67
2022/03/20 05:03:24;;;;;;;31.27;15.45;;;;;;;0.35;51.51;102654.38;1718769;83;21036;-68
2022/03/20 05:05:51;;;;;;;29.15;15.13;;;;;;;0.71;50.78;102658.11;1718409;83;21261;-71
2022/03/20 05:08:18;;;;;;;29.48;14.50;;;;;;;1.16;49.21;102657.02;1718301;83;20993;-67
2022/03/20 05:13:30;;;;;;;31.65;14.10;;;;;;;2.07;47.40;102658.53;1718507;83;21061;-69
2022/03/20 05:15:58;;;;;;;31.02;13.83;;;;;;;2.58;46.58;102663.02;1718618;83;21162;-69
2022/03/20 05:18:25;;;;;;;28.52;14.20;;;;;;;3.02;45.54;102658.92;1718452;83;21245;-68
2022/03/20 05:20:54;;;;;;;26.17;14.50;;;;;;;3.52;44.34;102673.64;1718262;83;21541;-68
2022/03/20 05:23:21;;;;;;;28.27;14.13;;;;;;;3.99;43.26;102672.94;1718337;83;21577;-68
2022/03/20 05:25:48;;;;;;;27.87;13.15;;;;;;;4.37;41.41;102670.62;1718480;83;21198;-68
2022/03/20 05:28:16;;;;;;;24.40;13.95;;;;;;;4.74;41.89;102667.74;1718575;83;21025;-68
2022/03/20 05:30:43;;;;;;;25.90;12.58;;;;;;;5.29;39.15;102670.03;1718503;83;21218;-69
2022/03/20 05:33:14;;;;;;;23.30;12.58;;;;;;;5.54;39.13;102671.09;1718339;83;21062;-67
2022/03/20 05:35:43;;;;;;;23.38;12.33;;;;;;;5.96;38.31;102676.94;1718374;83;21057;-69
2022/03/20 05:38:09;;;;;;;22.70;12.25;;;;;;;6.34;37.76;102674.26;1718324;83;21140;-67
2022/03/20 05:40:38;;;;;;;21.77;12.05;;;;;;;6.73;36.12;102678.55;1718399;83;21073;-67
2022/03/20 05:43:10;;;;;;;24.23;12.15;;;;;;;7.05;35.62;102682.20;1718211;83;21209;-68
2022/03/20 05:45:37;;;;;;;24.63;12.20;;;;;;;7.37;35.40;102693.27;1717868;83;21081;-68
2022/03/20 05:48:05;;;;;;;22.25;12.58;;;;;;;7.76;34.54;102690.41;1718366;83;21108;-68
2022/03/20 05:50:32;;;;;;;22.07;12.73;;;;;;;8.25;33.50;102689.36;1729955;82;21002;-69
2022/03/20 05:52:59;;;;;;;22.52;12.18;;;;;;;8.42;32.07;102690.51;1733143;82;21041;-68
2022/03/20 05:58:13;;;;;;;22.77;12.98;;;;;;;8.64;32.28;102697.33;1733446;82;21080;-68
2022/03/20 06:00:42;;;;;;;24.37;13.32;;;;;;;9.02;31.16;102694.70;1737006;82;21069;-68
2022/03/20 06:03:11;;;;;;;24.05;13.75;;;;;;;9.40;30.43;102693.30;1748302;82;21056;-68
2022/03/20 06:05:39;;;;;;;21.57;12.98;;;;;;;9.78;29.89;102690.98;1747994;82;21028;-68
2022/03/20 06:08:06;;;;;;;22.87;13.28;;;;;;;10.22;29.53;102686.42;1748421;81;21194;-68
2022/03/20 06:10:33;;;;;;;21.42;13.03;;;;;;;10.62;29.24;102694.52;1748104;82;21057;-69
2022/03/20 06:13:03;;;;;;;22.70;12.88;;;;;;;11.11;28.59;102702.59;1743881;81;21033;-67
2022/03/20 06:15:32;;;;;;;19.65;12.15;;;;;;;11.52;27.20;102704.36;1742870;82;21037;-69
2022/03/20 06:18:00;;;;;;;22.22;12.28;;;;;;;11.60;27.68;102698.23;1721584;82;21045;-69
2022/03/20 06:20:28;;;;;;;21.40;12.82;;;;;;;11.96;27.00;102700.86;1678640;85;20991;-68
2022/03/20 06:22:56;;;;;;;20.55;12.10;;;;;;;12.45;26.33;102698.97;1713120;83;21142;-69
2022/03/20 06:25:22;;;;;;;17.73;11.83;;;;;;;12.77;25.68;102697.50;1713037;83;21026;-68
2022/03/20 06:27:52;;;;;;;20.62;12.20;;;;;;;12.87;25.28;102691.72;1678398;85;21113;-67
2022/03/20 06:30:20;;;;;;;21.30;12.93;;;;;;;12.86;25.09;102694.81;1713091;83;21529;-69
2022/03/20 06:32:47;;;;;;;22.67;12.47;;;;;;;12.86;24.83;102699.20;1678676;85;21204;-68
2022/03/20 06:35:17;;;;;;;20.77;12.43;;;;;;;12.77;25.09;102699.70;1713066;83;21510;-69
2022/03/20 06:37:45;;;;;;;21.82;11.83;;;;;;;12.97;24.68;102699.56;1713325;83;21288;-68
2022/03/20 06:40:14;;;;;;;20.90;12.68;;;;;;;13.34;24.22;102702.44;1713179;83;21089;-68
2022/03/20 06:42:42;;;;;;;19.70;12.07;;;;;;;13.79;24.05;102693.69;1713349;83;21100;-68
2022/03/20 06:45:10;;;;;;;17.87;12.50;;;;;;;14.22;23.51;102694.58;1712946;83;21131;-69
2022/03/20 06:47:37;;;;;;;19.23;11.40;;;;;;;14.41;23.26;102693.45;1678652;85;21078;-68
2022/03/20 06:50:06;;;;;;;19.62;11.15;;;;;;;14.66;23.08;102689.20;1730025;82;21085;-69
2022/03/20 06:52:32;;;;;;;19.48;11.97;;;;;;;15.00;22.50;102686.05;1742954;82;21541;-68
2022/03/20 06:55:01;;;;;;;21.80;11.90;;;;;;;15.23;22.39;102690.59;1742564;82;21546;-68
2022/03/20 06:57:28;;;;;;;17.48;10.90;;;;;;;15.47;21.84;102689.75;1742638;82;21165;-69
2022/03/20 06:59:56;;;;;;;19.77;12.07;;;;;;;15.58;21.99;102686.92;1742578;81;21021;-68
2022/03/20 07:02:24;;;;;;;18.32;10.68;;;;;;;15.86;21.57;102687.34;1742506;82;21053;-67
2022/03/20 07:04:51;;;;;;;18.50;11.35;;;;;;;16.06;21.17;102689.17;1742446;82;21660;-68
2022/03/20 07:07:19;;;;;;;17.98;10.55;;;;;;;15.88;21.34;102697.03;1742465;82;21576;-68
2022/03/20 07:09:45;;;;;;;16.45;11.30;;;;;;;16.04;21.29;102688.32;1742742;82;21886;-67
2022/03/20 07:12:13;;;;;;;17.75;10.85;;;;;;;15.83;20.30;102691.39;1744268;82;21581;-67
2022/03/20 07:14:44;;;;;;;17.67;10.45;;;;;;;15.44;21.24;102689.81;1748184;81;21033;-67
2022/03/20 07:17:16;;;;;;;17.92;10.63;;;;;;;15.28;21.12;102691.37;1748343;82;21053;-70
2022/03/20 07:19:44;;;;;;;16.90;11.15;;;;;;;15.26;21.47;102693.64;1748264;81;21049;-68
2022/03/20 07:22:14;;;;;;;18.40;10.80;;;;;;;15.41;21.28;102688.52;1748030;81;21053;-68
2022/03/20 07:24:43;;;;;;;18.32;11.48;;;;;;;15.51;21.56;102689.67;1748261;81;21097;-68
2022/03/20 07:29:56;;;;;;;19.48;11.12;;;;;;;15.55;21.20;102689.16;1748294;82;21104;-69
2022/03/20 07:32:23;;;;;;;19.80;11.20;;;;;;;15.79;21.20;102693.67;1748121;82;21479;-69
2022/03/20 07:34:51;;;;;;;22.20;11.97;;;;;;;16.08;21.01;102687.78;1747994;81;21545;-68
2022/03/20 07:37:18;;;;;;;17.67;11.40;;;;;;;16.29;20.73;102683.86;1748165;82;21045;-68
2022/03/20 07:39:47;;;;;;;19.02;10.95;;;;;;;16.37;20.57;102684.56;1748328;82;21080;-67
2022/03/20 07:42:15;;;;;;;18.00;11.78;;;;;;;16.40;20.30;102687.14;1748098;82;21455;-68
2022/03/20 07:44:43;;;;;;;16.65;10.23;;;;;;;16.43;20.42;102687.10;1748447;81;21087;-68
2022/03/20 07:47:20;;;;;;;15.95;10.63;;;;;;;16.74;20.61;102693.08;1748076;82;21202;-68
2022/03/20 07:49:47;;;;;;;18.35;10.55;;;;;;;17.11;20.29;102685.62;1734025;82;21093;-68
2022/03/20 07:52:14;;;;;;;17.98;10.48;;;;;;;17.53;19.90;102682.80;1718125;83;21559;-66
2022/03/20 07:54:42;;;;;;;16.45;10.45;;;;;;;17.87;19.29;102674.83;1718035;83;21055;-68
2022/03/20 07:57:08;;;;;;;15.80;10.88;;;;;;;18.14;19.09;102683.86;1718088;83;21133;-69
2022/03/20 07:59:36;;;;;;;17.02;10.88;;;;;;;18.05;18.68;102678.78;1717916;82;21236;-68
2022/03/20 08:02:04;;;;;;;18.17;10.23;;;;;;;17.58;18.70;102682.25;1718224;83;21088;-67
2022/03/20 08:04:31;;;;;;;15.30;9.53;;;;;;;17.33;19.20;102676.20;1717866;83;21117;-69
2022/03/20 08:07:02;;;;;;;14.58;10.03;;;;;;;17.24;18.92;102679.09;1718200;83;21054;-70
2022/03/20 08:09:29;;;;;;;18.30;9.53;;;;;;;17.12;19.28;102677.60;1718317;83;21856;-68
2022/03/20 08:11:57;;;;;;;15.30;10.23;;;;;;;16.83;19.13;102675.61;1718322;83;21237;-68
2022/03/20 08:14:23;;;;;;;18.60;10.45;;;;;;;16.51;19.63;102674.50;1720589;83;21067;-68
2022/03/20 08:16:51;;;;;;;15.23;10.10;;;;;;;16.29;19.78;102671.89;1720388;83;21149;-67
2022/03/20 08:19:21;;;;;;;15.60;9.98;;;;;;;16.27;20.05;102672.38;1720274;83;21063;-68
2022/03/20 08:21:48;;;;;;;13.58;8.98;;;;;;;16.35;19.90;102666.42;1720179;83;21077;-67
2022/03/20 08:24:14;;;;;;;17.00;9.95;;;;;;;16.62;19.94;102668.09;1720335;83;21223;-70
2022/03/20 08:26:41;;;;;;;18.95;10.10;;;;;;;16.90;19.94;102666.58;1720234;83;21058;-68
2022/03/20 08:29:10;;;;;;;19.80;10.82;;;;;;;17.27;19.75;102663.03;1720429;83;21153;-68
2022/03/20 08:31:36;;;;;;;16.05;9.65;;;;;;;17.39;19.56;102662.73;1720366;83;21103;-68
2022/03/20 08:34:04;;;;;;;18.35;10.70;;;;;;;17.72;19.57;102666.77;1720302;83;21058;-67
2022/03/20 08:36:31;;;;;;;14.73;9.95;;;;;;;18.02;18.76;102658.42;1720305;83;21134;-68
2022/03/20 08:38:58;;;;;;;14.23;8.95;;;;;;;18.16;18.76;102660.69;1720329;83;21141;-67
2022/03/20 08:41:25;;;;;;;16.02;9.90;;;;;;;18.35;18.60;102658.83;1720433;83;21105;-68
2022/03/20 08:43:52;;;;;;;17.98;10.95;;;;;;;18.55;18.32;102660.44;1720566;83;21083;-68
2022/03/20 08:46:18;;;;;;;27.25;10.95;;;;;;;18.46;18.46;102662.05;1720438;82;21066;-68
2022/03/20 08:48:45;;;;;;;14.83;8.88;;;;;;;18.32;17.92;102666.93;1720412;83;21313;-68
2022/03/20 08:51:12;;;;;;;17.12;9.78;;;;;;;18.08;18.36;102658.69;1720246;83;21059;-68
2022/03/20 08:53:39;;;;;;;15.63;10.63;;;;;;;17.95;18.73;102657.31;1693510;83;22091;-68
2022/03/20 08:56:06;;;;;;;16.97;10.00;;;;;;;18.13;18.60;102659.45;1720413;83;21165;-69
2022/03/20 08:58:33;;;;;;;17.42;11.00;;;;;;;18.34;18.71;102657.95;1720393;83;22054;-69
2022/03/20 09:00:59;;;;;;;21.30;12.50;;;;;;;18.16;18.53;102655.36;1720221;82;21207;-69
2022/03/20 09:03:26;;;;;;;15.03;9.88;;;;;;;17.77;18.93;102644.86;1720366;83;21519;-68
2022/03/20 09:05:54;;;;;;;17.20;10.08;;;;;;;17.58;19.20;102656.94;1720228;83;21090;-68
2022/03/20 09:08:20;;;;;;;17.02;10.30;;;;;;;17.69;19.42;102653.53;1720330;83;21035;-70
2022/03/20 09:10:51;;;;;;;17.70;9.90;;;;;;;17.96;18.74;102651.91;1720661;82;21137;-68
2022/03/20 09:13:18;;;;;;;14.35;10.08;;;;;;;17.93;19.12;102648.48;1701721;83;21266;-69
2022/03/20 09:15:45;;;;;;;15.50;10.43;;;;;;;17.77;19.05;102647.98;1683092;85;21567;-68
2022/03/20 09:21:02;;;;;;;15.05;9.55;;;;;;;17.14;19.56;102649.63;1682825;85;21034;-68
2022/03/20 09:23:31;;;;;;;19.15;10.48;;;;;;;16.96;19.75;102643.81;1682987;85;26160;-70
2022/03/20 09:25:59;;;;;;;22.22;10.82;;;;;;;16.83;20.06;102650.33;1683009;85;21888;-69
2022/03/20 09:28:26;;;;;;;17.10;10.63;;;;;;;16.76;20.21;102644.70;1682702;85;21026;-68
2022/03/20 09:30:54;;;;;;;14.35;9.25;;;;;;;16.79;20.16;102645.98;1702522;82;21033;-69
2022/03/20 09:33:25;;;;;;;21.12;11.18;;;;;;;16.90;20.20;102651.94;1735650;82;21046;-69
2022/03/20 09:35:50;;;;;;;16.70;9.55;;;;;;;17.13;19.90;102646.52;1735861;82;21545;-69
2022/03/20 09:38:18;;;;;;;13.45;8.98;;;;;;;17.14;19.80;102632.31;1735736;82;21542;-68
2022/03/20 09:40:45;;;;;;;16.42;9.33;;;;;;;17.16;19.75;102637.12;1735696;82;21085;-68
2022/03/20 09:43:11;;;;;;;13.62;7.95;;;;;;;17.19;19.50;102632.61;1735838;82;21046;-69
2022/03/20 09:45:39;;;;;;;10.98;7.85;;;;;;;17.28;19.55;102627.52;1735773;82;21054;-71
2022/03/20 09:48:05;;;;;;;13.98;9.20;;;;;;;17.48;19.07;102634.09;1735604;82;21159;-68
2022/03/20 09:50:33;;;;;;;15.60;9.15;;;;;;;17.35;19.02;102637.09;1739732;82;21250;-68
2022/03/20 09:53:00;;;;;;;16.93;9.05;;;;;;;17.32;19.16;102635.84;1740886;82;21042;-68
2022/03/20 09:55:27;;;;;;;19.75;8.98;;;;;;;17.43;19.03;102633.35;1741013;82;21038;-69
2022/03/20 09:57:56;;;;;;;13.55;9.38;;;;;;;17.51;19.36;102632.24;1740838;82;21061;-68
2022/03/20 10:00:24;;;;;;;15.70;9.95;;;;;;;17.72;19.27;102622.80;1741042;82;21287;-69
2022/03/20 10:02:51;;;;;;;14.70;9.60;;;;;;;17.76;18.91;102628.47;1740944;82;21975;-69
2022/03/20 10:05:28;;;;;;;15.90;9.43;;;;;;;17.62;19.20;102623.94;1740910;82;21119;-69
2022/03/20 10:07:54;;;;;;;14.28;8.93;;;;;;;17.64;19.20;102624.78;1741627;82;21014;-69
2022/03/20 10:10:25;;;;;;;12.50;7.15;;;;;;;17.87;18.99;102631.31;1694094;82;21049;-67
2022/03/20 10:12:56;;;;;;;12.60;6.87;;;;;;;17.77;18.42;102622.20;1741273;82;21022;-68
2022/03/20 10:15:39;;;;;;;11.63;6.97;;;;;;;17.57;18.42;102621.86;1734552;82;21314;-69
2022/03/20 10:18:18;;;;;;;11.57;7.17;;;;;;;17.58;18.87;102625.83;1733764;82;21010;-68
2022/03/20 10:20:47;;;;;;;18.32;6.87;;;;;;;17.67;18.75;102623.81;1733000;82;21498;-68
2022/03/20 10:23:30;;;;;;;13.50;7.92;;;;;;;17.76;19.05;102616.47;1732966;82;21038;-69
2022/03/20 10:27:27;;;;;;;11.25;7.50;;;;;;;17.86;18.26;102612.25;1814416;79;22409;-68
2022/03/20 10:29:57;;;;;;;13.38;6.97;;;;;;;17.32;19.15;102617.20;1787642;80;20941;-69
2022/03/20 10:32:24;;;;;;;15.03;8.15;;;;;;;17.21;18.56;102611.27;1787666;80;25339;-68
2022/03/20 10:34:59;;;;;;;13.38;8.58;;;;;;;17.17;19.26;102612.26;1787451;80;21127;-68
2022/03/20 10:37:52;;;;;;;10.50;6.62;;;;;;;17.07;19.02;102601.41;1787443;80;21561;-69
2022/03/20 10:40:26;;;;;;;13.38;8.28;;;;;;;16.96;19.34;102602.56;1787743;80;21140;-68
2022/03/20 10:43:14;;;;;;;13.88;8.48;;;;;;;17.16;19.46;102602.50;1787598;80;21048;-70
2022/03/20 10:46:00;;;;;;;13.65;8.30;;;;;;;17.43;19.49;102593.39;1786983;80;21081;-68
2022/03/20 10:48:43;;;;;;;13.53;8.00;;;;;;;17.72;18.91;102590.81;1787556;80;20993;-69
2022/03/20 10:51:11;;;;;;;17.77;9.03;;;;;;;17.59;19.07;102594.73;1756148;81;21572;-68
2022/03/20 10:54:00;;;;;;;14.80;8.00;;;;;;;17.09;18.87;102597.81;1756380;81;21070;-68
2022/03/20 10:56:27;;;;;;;12.90;7.22;;;;;;;16.75;19.38;102601.25;1756698;81;21031;-67
2022/03/20 10:58:54;;;;;;;11.35;6.95;;;;;;;16.78;18.94;102594.98;1756272;80;21328;-69
2022/03/20 11:01:36;;;;;;;11.65;6.53;;;;;;;16.85;19.02;102583.31;1756269;81;21052;-68
2022/03/20 11:04:05;;;;;;;15.40;7.53;;;;;;;16.90;18.53;102584.06;1756145;81;21052;-69
2022/03/20 11:06:32;;;;;;;11.30;6.90;;;;;;;16.53;18.86;102576.92;1756575;81;21075;-69
2022/03/20 11:09:04;;;;;;;11.22;7.67;;;;;;;16.58;19.19;102574.16;1756267;81;22262;-68
2022/03/20 11:11:33;;;;;;;12.98;7.53;;;;;;;16.77;18.20;102582.14;1756627;81;21187;-67
2022/03/20 11:14:02;;;;;;;;;;;;;;;16.62;18.51;102573.18;1758993;81;21033;-69
2022/03/20 11:16:29;;;;;;;13.15;7.87;;;;;;;16.48;18.62;102569.52;1756281;81;20235;-68
2022/03/20 11:18:56;;;;;;;12.37;7.83;;;;;;;16.35;18.94;102562.72;1756251;81;21025;-68
2022/03/20 11:21:24;;;;;;;11.78;7.90;;;;;;;16.56;19.56;102560.02;1756154;81;21052;-68
2022/03/20 11:23:52;;;;;;;15.43;9.80;;;;;;;16.83;18.54;102558.52;1756155;81;21274;-68
2022/03/20 11:26:21;;;;;;;11.83;8.30;;;;;;;16.63;18.75;102556.76;1750801;80;21619;-67
2022/03/20 11:28:53;;;;;;;17.55;10.82;;;;;;;16.52;18.99;102548.59;1743666;82;21068;-68
2022/03/20 11:31:20;;;;;;;16.73;10.95;;;;;;;16.55;18.39;102543.19;1743689;82;21072;-68
2022/03/20 11:33:47;;;;;;;23.15;15.15;;;;;;;16.25;18.66;102539.45;1743458;82;21056;-67
2022/03/20 11:36:14;;;;;;;26.90;15.63;;;;;;;15.87;19.11;102544.25;1743790;82;21243;-68
2022/03/20 11:38:41;;;;;;;20.65;11.65;;;;;;;15.50;19.27;102533.01;1742959;82;21103;-69
2022/03/20 11:41:20;;;;;;;14.35;9.58;;;;;;;15.26;19.66;102533.90;1743232;82;21100;-69
2022/03/20 11:44:22;;;;;;;19.52;10.70;;;;;;;15.28;19.17;102532.09;1743306;82;21045;-68
2022/03/20 11:47:19;;;;;;;17.52;11.88;;;;;;;15.46;19.51;102537.95;1743031;82;22132;-71
2022/03/20 11:50:09;;;;;;;16.52;9.75;;;;;;;15.48;18.89;102537.47;1755559;81;21133;-68